sensor_id;sensor_type;location;lat;lon;timestamp;P1;durP1;ratioP1;P2;durP2;ratioP2
20956;SDS011;10637;47.970;7.830;2024-01-15T00:00:09;56.80;;;22.53;;
20956;SDS011;10637;47.970;7.830;2024-01-15T00:05:11;61.03;;;22.97;;
20956;SDS011;10637;47.970;7.830;2024-01-15T00:10:13;64.57;;;23.93;;
20956;SDS011;10637;47.970;7.830;2024-01-15T00:15:15;57.43;;;22.03;;
20956;SDS011;10637;47.970;7.830;2024-01-15T00:20:17;61.17;;;22.50;;
20956;SDS011;10637;47.970;7.830;2024-01-15T00:25:18;57.30;;;21.97;;
20956;SDS011;10637;47.970;7.830;2024-01-15T00:30:20;57.27;;;20.87;;
20956;SDS011;10637;47.970;7.830;2024-01-15T00:35:22;61.63;;;20.13;;
20956;SDS011;10637;47.970;7.830;2024-01-15T00:40:24;53.27;;;20.17;;
20956;SDS011;10637;47.970;7.830;2024-01-15T00:45:26;60.67;;;22.47;;
20956;SDS011;10637;47.970;7.830;2024-01-15T00:50:28;51.27;;;18.07;;
20956;SDS011;10637;47.970;7.830;2024-01-15T00:55:30;61.93;;;22.13;;
20956;SDS011;10637;47.970;7.830;2024-01-15T01:00:32;55.63;;;20.27;;
20956;SDS011;10637;47.970;7.830;2024-01-15T01:05:34;50.97;;;20.37;;
20956;SDS011;10637;47.970;7.830;2024-01-15T01:10:36;54.33;;;22.10;;
20956;SDS011;10637;47.970;7.830;2024-01-15T01:15:38;58.37;;;19.43;;
20956;SDS011;10637;47.970;7.830;2024-01-15T01:20:40;52.97;;;20.43;;
20956;SDS011;10637;47.970;7.830;2024-01-15T01:25:42;53.80;;;19.97;;
20956;SDS011;10637;47.970;7.830;2024-01-15T01:30:44;44.23;;;17.97;;
20956;SDS011;10637;47.970;7.830;2024-01-15T01:35:46;44.47;;;17.10;;
20956;SDS011;10637;47.970;7.830;2024-01-15T01:40:48;44.37;;;14.87;;
20956;SDS011;10637;47.970;7.830;2024-01-15T01:45:50;39.07;;;14.17;;
20956;SDS011;10637;47.970;7.830;2024-01-15T01:50:57;33.33;;;12.67;;
20956;SDS011;10637;47.970;7.830;2024-01-15T01:56:00;39.33;;;13.77;;
20956;SDS011;10637;47.970;7.830;2024-01-15T02:01:04;41.87;;;13.47;;
20956;SDS011;10637;47.970;7.830;2024-01-15T02:06:06;34.27;;;13.27;;
20956;SDS011;10637;47.970;7.830;2024-01-15T02:11:09;36.73;;;12.47;;
20956;SDS011;10637;47.970;7.830;2024-01-15T02:16:11;34.83;;;13.77;;
20956;SDS011;10637;47.970;7.830;2024-01-15T02:21:13;38.17;;;15.43;;
20956;SDS011;10637;47.970;7.830;2024-01-15T02:26:14;48.93;;;19.60;;
20956;SDS011;10637;47.970;7.830;2024-01-15T02:31:16;50.43;;;20.80;;
20956;SDS011;10637;47.970;7.830;2024-01-15T02:36:18;51.83;;;19.93;;
20956;SDS011;10637;47.970;7.830;2024-01-15T02:41:20;45.33;;;18.90;;
20956;SDS011;10637;47.970;7.830;2024-01-15T02:46:22;48.37;;;18.83;;
20956;SDS011;10637;47.970;7.830;2024-01-15T02:51:24;46.67;;;18.87;;
20956;SDS011;10637;47.970;7.830;2024-01-15T02:56:26;48.47;;;19.73;;
20956;SDS011;10637;47.970;7.830;2024-01-15T03:01:27;47.90;;;18.70;;
20956;SDS011;10637;47.970;7.830;2024-01-15T03:06:29;52.33;;;19.60;;
20956;SDS011;10637;47.970;7.830;2024-01-15T03:11:37;48.93;;;18.30;;
20956;SDS011;10637;47.970;7.830;2024-01-15T03:16:40;45.60;;;19.43;;
20956;SDS011;10637;47.970;7.830;2024-01-15T03:21:43;49.10;;;19.70;;
20956;SDS011;10637;47.970;7.830;2024-01-15T03:26:45;45.70;;;18.30;;
20956;SDS011;10637;47.970;7.830;2024-01-15T03:31:46;48.43;;;20.03;;
20956;SDS011;10637;47.970;7.830;2024-01-15T03:36:48;46.53;;;20.57;;
20956;SDS011;10637;47.970;7.830;2024-01-15T03:41:50;47.50;;;19.77;;
20956;SDS011;10637;47.970;7.830;2024-01-15T03:46:52;49.00;;;19.40;;
20956;SDS011;10637;47.970;7.830;2024-01-15T03:51:53;47.27;;;18.43;;
20956;SDS011;10637;47.970;7.830;2024-01-15T03:56:55;48.00;;;18.90;;
20956;SDS011;10637;47.970;7.830;2024-01-15T04:01:57;47.93;;;19.27;;
20956;SDS011;10637;47.970;7.830;2024-01-15T04:06:59;48.03;;;20.30;;
20956;SDS011;10637;47.970;7.830;2024-01-15T04:12:01;49.80;;;20.33;;
20956;SDS011;10637;47.970;7.830;2024-01-15T04:17:02;55.17;;;21.20;;
20956;SDS011;10637;47.970;7.830;2024-01-15T04:22:04;55.67;;;22.23;;
20956;SDS011;10637;47.970;7.830;2024-01-15T04:27:06;58.40;;;21.87;;
20956;SDS011;10637;47.970;7.830;2024-01-15T04:32:09;50.43;;;20.07;;
20956;SDS011;10637;47.970;7.830;2024-01-15T04:37:11;53.43;;;22.40;;
20956;SDS011;10637;47.970;7.830;2024-01-15T04:42:14;53.80;;;21.13;;
20956;SDS011;10637;47.970;7.830;2024-01-15T04:47:16;56.43;;;22.53;;
20956;SDS011;10637;47.970;7.830;2024-01-15T04:52:18;56.90;;;22.43;;
20956;SDS011;10637;47.970;7.830;2024-01-15T04:57:19;54.37;;;21.37;;
20956;SDS011;10637;47.970;7.830;2024-01-15T05:02:21;57.63;;;21.90;;
20956;SDS011;10637;47.970;7.830;2024-01-15T05:07:23;59.40;;;23.67;;
20956;SDS011;10637;47.970;7.830;2024-01-15T05:12:25;65.47;;;24.73;;
20956;SDS011;10637;47.970;7.830;2024-01-15T05:17:27;57.47;;;23.03;;
20956;SDS011;10637;47.970;7.830;2024-01-15T05:22:28;58.13;;;21.17;;
20956;SDS011;10637;47.970;7.830;2024-01-15T05:27:30;56.60;;;22.10;;
20956;SDS011;10637;47.970;7.830;2024-01-15T05:32:32;61.43;;;22.60;;
20956;SDS011;10637;47.970;7.830;2024-01-15T05:37:33;58.60;;;21.30;;
20956;SDS011;10637;47.970;7.830;2024-01-15T05:42:35;58.77;;;20.33;;
20956;SDS011;10637;47.970;7.830;2024-01-15T05:47:37;51.70;;;19.53;;
20956;SDS011;10637;47.970;7.830;2024-01-15T05:52:39;63.40;;;22.97;;
20956;SDS011;10637;47.970;7.830;2024-01-15T05:57:41;58.00;;;21.30;;
20956;SDS011;10637;47.970;7.830;2024-01-15T06:02:42;63.73;;;21.13;;
20956;SDS011;10637;47.970;7.830;2024-01-15T06:07:44;59.90;;;22.43;;
20956;SDS011;10637;47.970;7.830;2024-01-15T06:12:46;58.40;;;20.83;;
20956;SDS011;10637;47.970;7.830;2024-01-15T06:17:48;62.47;;;22.67;;
20956;SDS011;10637;47.970;7.830;2024-01-15T06:22:50;60.90;;;21.10;;
20956;SDS011;10637;47.970;7.830;2024-01-15T06:27:51;57.03;;;19.97;;
20956;SDS011;10637;47.970;7.830;2024-01-15T06:32:53;57.87;;;20.47;;
20956;SDS011;10637;47.970;7.830;2024-01-15T06:37:55;66.53;;;23.63;;
20956;SDS011;10637;47.970;7.830;2024-01-15T06:42:57;58.67;;;22.93;;
20956;SDS011;10637;47.970;7.830;2024-01-15T06:47:59;58.97;;;21.60;;
20956;SDS011;10637;47.970;7.830;2024-01-15T06:53:01;57.57;;;23.03;;
20956;SDS011;10637;47.970;7.830;2024-01-15T06:58:02;62.27;;;22.27;;
20956;SDS011;10637;47.970;7.830;2024-01-15T07:03:04;55.50;;;20.97;;
20956;SDS011;10637;47.970;7.830;2024-01-15T07:08:06;59.93;;;22.80;;
20956;SDS011;10637;47.970;7.830;2024-01-15T07:13:08;59.47;;;22.03;;
20956;SDS011;10637;47.970;7.830;2024-01-15T07:18:10;50.23;;;16.80;;
20956;SDS011;10637;47.970;7.830;2024-01-15T07:23:12;53.30;;;19.47;;
20956;SDS011;10637;47.970;7.830;2024-01-15T07:28:13;52.90;;;20.43;;
20956;SDS011;10637;47.970;7.830;2024-01-15T07:33:15;45.93;;;16.07;;
20956;SDS011;10637;47.970;7.830;2024-01-15T07:38:17;33.93;;;13.10;;
20956;SDS011;10637;47.970;7.830;2024-01-15T07:43:19;38.10;;;13.90;;
20956;SDS011;10637;47.970;7.830;2024-01-15T07:48:21;32.00;;;11.50;;
20956;SDS011;10637;47.970;7.830;2024-01-15T07:53:23;28.87;;;11.27;;
20956;SDS011;10637;47.970;7.830;2024-01-15T07:58:25;22.67;;;8.37;;
20956;SDS011;10637;47.970;7.830;2024-01-15T08:03:27;26.67;;;10.37;;
20956;SDS011;10637;47.970;7.830;2024-01-15T08:08:29;27.27;;;11.20;;
20956;SDS011;10637;47.970;7.830;2024-01-15T08:13:30;27.17;;;11.00;;
20956;SDS011;10637;47.970;7.830;2024-01-15T08:18:32;17.00;;;6.13;;
20956;SDS011;10637;47.970;7.830;2024-01-15T08:23:34;14.90;;;5.40;;
20956;SDS011;10637;47.970;7.830;2024-01-15T08:28:36;12.60;;;4.87;;
20956;SDS011;10637;47.970;7.830;2024-01-15T08:33:40;14.03;;;4.97;;
20956;SDS011;10637;47.970;7.830;2024-01-15T08:38:42;16.10;;;5.63;;
20956;SDS011;10637;47.970;7.830;2024-01-15T08:43:43;14.13;;;4.90;;
20956;SDS011;10637;47.970;7.830;2024-01-15T08:48:45;15.47;;;5.40;;
20956;SDS011;10637;47.970;7.830;2024-01-15T08:53:47;15.17;;;4.70;;
20956;SDS011;10637;47.970;7.830;2024-01-15T08:58:49;12.50;;;4.10;;
20956;SDS011;10637;47.970;7.830;2024-01-15T09:03:51;12.23;;;4.27;;
20956;SDS011;10637;47.970;7.830;2024-01-15T09:08:53;12.47;;;4.77;;
20956;SDS011;10637;47.970;7.830;2024-01-15T09:13:54;14.30;;;5.50;;
20956;SDS011;10637;47.970;7.830;2024-01-15T09:18:56;13.77;;;4.80;;
20956;SDS011;10637;47.970;7.830;2024-01-15T09:23:58;18.37;;;6.20;;
20956;SDS011;10637;47.970;7.830;2024-01-15T09:29:00;17.00;;;6.53;;
20956;SDS011;10637;47.970;7.830;2024-01-15T09:34:02;14.20;;;5.33;;
20956;SDS011;10637;47.970;7.830;2024-01-15T09:39:04;12.07;;;4.23;;
20956;SDS011;10637;47.970;7.830;2024-01-15T09:44:09;16.43;;;4.83;;
20956;SDS011;10637;47.970;7.830;2024-01-15T09:49:13;15.57;;;5.40;;
20956;SDS011;10637;47.970;7.830;2024-01-15T09:54:15;14.00;;;5.33;;
20956;SDS011;10637;47.970;7.830;2024-01-15T09:59:18;17.23;;;6.80;;
20956;SDS011;10637;47.970;7.830;2024-01-15T10:04:21;18.10;;;6.83;;
20956;SDS011;10637;47.970;7.830;2024-01-15T10:09:25;18.40;;;6.70;;
20956;SDS011;10637;47.970;7.830;2024-01-15T10:14:26;20.63;;;7.97;;
20956;SDS011;10637;47.970;7.830;2024-01-15T10:19:28;20.00;;;8.17;;
20956;SDS011;10637;47.970;7.830;2024-01-15T10:24:32;24.30;;;8.60;;
20956;SDS011;10637;47.970;7.830;2024-01-15T10:29:35;23.70;;;9.70;;
20956;SDS011;10637;47.970;7.830;2024-01-15T10:34:38;22.23;;;8.63;;
20956;SDS011;10637;47.970;7.830;2024-01-15T10:39:50;26.33;;;11.03;;
20956;SDS011;10637;47.970;7.830;2024-01-15T10:44:52;27.97;;;10.83;;
20956;SDS011;10637;47.970;7.830;2024-01-15T10:49:54;32.97;;;13.00;;
20956;SDS011;10637;47.970;7.830;2024-01-15T10:54:56;30.17;;;11.33;;
20956;SDS011;10637;47.970;7.830;2024-01-15T10:59:59;29.43;;;12.10;;
20956;SDS011;10637;47.970;7.830;2024-01-15T11:05:01;33.90;;;13.30;;
20956;SDS011;10637;47.970;7.830;2024-01-15T11:10:03;33.10;;;13.20;;
20956;SDS011;10637;47.970;7.830;2024-01-15T11:15:06;37.07;;;14.57;;
20956;SDS011;10637;47.970;7.830;2024-01-15T11:20:10;34.73;;;13.97;;
20956;SDS011;10637;47.970;7.830;2024-01-15T11:25:12;34.40;;;14.20;;
20956;SDS011;10637;47.970;7.830;2024-01-15T11:30:15;34.63;;;14.90;;
20956;SDS011;10637;47.970;7.830;2024-01-15T11:35:18;30.13;;;12.70;;
20956;SDS011;10637;47.970;7.830;2024-01-15T11:45:34;34.93;;;13.77;;
20956;SDS011;10637;47.970;7.830;2024-01-15T11:50:38;33.90;;;13.37;;
20956;SDS011;10637;47.970;7.830;2024-01-15T11:55:51;38.20;;;16.10;;
20956;SDS011;10637;47.970;7.830;2024-01-15T12:00:53;35.87;;;13.47;;
20956;SDS011;10637;47.970;7.830;2024-01-15T12:05:56;32.50;;;13.07;;
20956;SDS011;10637;47.970;7.830;2024-01-15T12:10:59;39.47;;;15.63;;
20956;SDS011;10637;47.970;7.830;2024-01-15T12:16:02;37.17;;;13.77;;
20956;SDS011;10637;47.970;7.830;2024-01-15T12:21:05;36.90;;;14.63;;
20956;SDS011;10637;47.970;7.830;2024-01-15T12:26:07;32.63;;;13.43;;
20956;SDS011;10637;47.970;7.830;2024-01-15T12:31:09;32.73;;;12.57;;
20956;SDS011;10637;47.970;7.830;2024-01-15T12:36:12;37.33;;;13.07;;
20956;SDS011;10637;47.970;7.830;2024-01-15T12:41:14;34.40;;;14.83;;
20956;SDS011;10637;47.970;7.830;2024-01-15T12:46:16;33.90;;;13.50;;
20956;SDS011;10637;47.970;7.830;2024-01-15T12:51:18;28.20;;;12.37;;
20956;SDS011;10637;47.970;7.830;2024-01-15T12:56:20;31.70;;;13.47;;
20956;SDS011;10637;47.970;7.830;2024-01-15T13:01:21;32.73;;;13.93;;
20956;SDS011;10637;47.970;7.830;2024-01-15T13:06:23;31.97;;;13.30;;
20956;SDS011;10637;47.970;7.830;2024-01-15T13:11:25;32.37;;;14.20;;
20956;SDS011;10637;47.970;7.830;2024-01-15T13:16:28;37.43;;;14.27;;
20956;SDS011;10637;47.970;7.830;2024-01-15T13:21:30;32.40;;;14.07;;
20956;SDS011;10637;47.970;7.830;2024-01-15T13:26:32;32.20;;;14.30;;
20956;SDS011;10637;47.970;7.830;2024-01-15T13:31:34;39.33;;;14.47;;
20956;SDS011;10637;47.970;7.830;2024-01-15T13:36:37;37.83;;;15.73;;
20956;SDS011;10637;47.970;7.830;2024-01-15T13:41:40;37.40;;;16.83;;
20956;SDS011;10637;47.970;7.830;2024-01-15T13:46:41;35.37;;;15.63;;
20956;SDS011;10637;47.970;7.830;2024-01-15T13:51:43;42.57;;;16.77;;
20956;SDS011;10637;47.970;7.830;2024-01-15T13:56:45;44.43;;;18.00;;
20956;SDS011;10637;47.970;7.830;2024-01-15T14:01:48;41.83;;;18.20;;
20956;SDS011;10637;47.970;7.830;2024-01-15T14:06:50;39.17;;;17.23;;
20956;SDS011;10637;47.970;7.830;2024-01-15T14:11:51;36.87;;;16.23;;
20956;SDS011;10637;47.970;7.830;2024-01-15T14:16:53;38.37;;;15.80;;
20956;SDS011;10637;47.970;7.830;2024-01-15T14:21:55;38.73;;;17.30;;
20956;SDS011;10637;47.970;7.830;2024-01-15T14:26:57;34.90;;;14.50;;
20956;SDS011;10637;47.970;7.830;2024-01-15T14:31:59;40.00;;;15.67;;
20956;SDS011;10637;47.970;7.830;2024-01-15T14:37:03;36.27;;;15.40;;
20956;SDS011;10637;47.970;7.830;2024-01-15T14:42:04;46.17;;;17.30;;
20956;SDS011;10637;47.970;7.830;2024-01-15T14:47:06;42.83;;;17.80;;
20956;SDS011;10637;47.970;7.830;2024-01-15T14:52:09;40.80;;;16.23;;
20956;SDS011;10637;47.970;7.830;2024-01-15T14:57:10;40.93;;;16.87;;
20956;SDS011;10637;47.970;7.830;2024-01-15T15:02:12;43.10;;;17.63;;
20956;SDS011;10637;47.970;7.830;2024-01-15T15:07:15;37.03;;;16.27;;
20956;SDS011;10637;47.970;7.830;2024-01-15T15:12:17;38.37;;;16.27;;
20956;SDS011;10637;47.970;7.830;2024-01-15T15:17:19;39.73;;;16.60;;
20956;SDS011;10637;47.970;7.830;2024-01-15T15:22:20;39.17;;;17.13;;
20956;SDS011;10637;47.970;7.830;2024-01-15T15:27:22;42.93;;;19.73;;
20956;SDS011;10637;47.970;7.830;2024-01-15T15:32:24;37.80;;;16.70;;
20956;SDS011;10637;47.970;7.830;2024-01-15T15:37:26;41.57;;;16.27;;
20956;SDS011;10637;47.970;7.830;2024-01-15T15:42:27;35.37;;;14.90;;
20956;SDS011;10637;47.970;7.830;2024-01-15T15:47:29;37.67;;;15.90;;
20956;SDS011;10637;47.970;7.830;2024-01-15T15:52:31;42.83;;;17.60;;
20956;SDS011;10637;47.970;7.830;2024-01-15T15:57:33;42.77;;;17.13;;
20956;SDS011;10637;47.970;7.830;2024-01-15T16:02:35;39.63;;;18.07;;
20956;SDS011;10637;47.970;7.830;2024-01-15T16:07:37;40.53;;;17.53;;
20956;SDS011;10637;47.970;7.830;2024-01-15T16:12:39;41.10;;;17.47;;
20956;SDS011;10637;47.970;7.830;2024-01-15T16:17:41;45.43;;;18.10;;
20956;SDS011;10637;47.970;7.830;2024-01-15T16:23:03;40.70;;;17.33;;
20956;SDS011;10637;47.970;7.830;2024-01-15T16:28:24;44.80;;;17.03;;
20956;SDS011;10637;47.970;7.830;2024-01-15T16:33:27;43.53;;;18.77;;
20956;SDS011;10637;47.970;7.830;2024-01-15T16:38:29;47.17;;;18.70;;
20956;SDS011;10637;47.970;7.830;2024-01-15T16:43:31;43.97;;;19.60;;
20956;SDS011;10637;47.970;7.830;2024-01-15T16:48:32;49.10;;;20.77;;
20956;SDS011;10637;47.970;7.830;2024-01-15T16:53:35;43.40;;;19.50;;
20956;SDS011;10637;47.970;7.830;2024-01-15T16:58:37;51.30;;;20.20;;
20956;SDS011;10637;47.970;7.830;2024-01-15T17:03:38;44.83;;;19.23;;
20956;SDS011;10637;47.970;7.830;2024-01-15T17:08:40;43.10;;;19.17;;
20956;SDS011;10637;47.970;7.830;2024-01-15T17:13:43;45.00;;;18.70;;
20956;SDS011;10637;47.970;7.830;2024-01-15T17:18:44;42.83;;;18.57;;
20956;SDS011;10637;47.970;7.830;2024-01-15T17:23:47;40.00;;;18.93;;
20956;SDS011;10637;47.970;7.830;2024-01-15T17:28:48;43.37;;;19.57;;
20956;SDS011;10637;47.970;7.830;2024-01-15T17:33:50;48.17;;;20.00;;
20956;SDS011;10637;47.970;7.830;2024-01-15T17:38:52;53.23;;;20.77;;
20956;SDS011;10637;47.970;7.830;2024-01-15T17:43:54;40.23;;;17.13;;
20956;SDS011;10637;47.970;7.830;2024-01-15T17:48:55;42.63;;;18.07;;
20956;SDS011;10637;47.970;7.830;2024-01-15T17:54:04;39.60;;;17.47;;
20956;SDS011;10637;47.970;7.830;2024-01-15T17:59:10;52.50;;;18.30;;
20956;SDS011;10637;47.970;7.830;2024-01-15T18:04:12;32.97;;;13.60;;
20956;SDS011;10637;47.970;7.830;2024-01-15T18:09:16;37.83;;;17.13;;
20956;SDS011;10637;47.970;7.830;2024-01-15T18:14:20;35.90;;;15.70;;
20956;SDS011;10637;47.970;7.830;2024-01-15T18:19:22;32.73;;;12.93;;
20956;SDS011;10637;47.970;7.830;2024-01-15T18:24:24;52.43;;;22.30;;
20956;SDS011;10637;47.970;7.830;2024-01-15T18:29:26;56.00;;;25.57;;
20956;SDS011;10637;47.970;7.830;2024-01-15T18:34:27;53.10;;;24.70;;
20956;SDS011;10637;47.970;7.830;2024-01-15T18:39:29;41.67;;;19.27;;
20956;SDS011;10637;47.970;7.830;2024-01-15T18:44:31;54.40;;;22.47;;
20956;SDS011;10637;47.970;7.830;2024-01-15T18:49:33;43.93;;;18.70;;
20956;SDS011;10637;47.970;7.830;2024-01-15T18:54:35;47.43;;;20.23;;
20956;SDS011;10637;47.970;7.830;2024-01-15T18:59:37;51.40;;;22.17;;
20956;SDS011;10637;47.970;7.830;2024-01-15T19:04:41;46.83;;;21.20;;
20956;SDS011;10637;47.970;7.830;2024-01-15T19:09:43;49.73;;;22.50;;
20956;SDS011;10637;47.970;7.830;2024-01-15T19:14:44;63.97;;;27.97;;
20956;SDS011;10637;47.970;7.830;2024-01-15T19:19:46;59.80;;;27.53;;
20956;SDS011;10637;47.970;7.830;2024-01-15T19:24:52;52.93;;;22.97;;
20956;SDS011;10637;47.970;7.830;2024-01-15T19:29:54;61.57;;;27.07;;
20956;SDS011;10637;47.970;7.830;2024-01-15T19:34:56;51.13;;;22.83;;
20956;SDS011;10637;47.970;7.830;2024-01-15T19:39:57;43.73;;;18.97;;
20956;SDS011;10637;47.970;7.830;2024-01-15T19:44:59;47.33;;;22.07;;
20956;SDS011;10637;47.970;7.830;2024-01-15T19:50:01;42.97;;;19.70;;
20956;SDS011;10637;47.970;7.830;2024-01-15T19:55:03;36.73;;;15.57;;
20956;SDS011;10637;47.970;7.830;2024-01-15T20:00:05;47.43;;;21.00;;
20956;SDS011;10637;47.970;7.830;2024-01-15T20:05:09;42.70;;;19.03;;
20956;SDS011;10637;47.970;7.830;2024-01-15T20:10:14;63.63;;;25.67;;
20956;SDS011;10637;47.970;7.830;2024-01-15T20:15:16;49.33;;;21.17;;
20956;SDS011;10637;47.970;7.830;2024-01-15T20:20:19;41.47;;;18.23;;
20956;SDS011;10637;47.970;7.830;2024-01-15T20:25:21;41.03;;;17.40;;
20956;SDS011;10637;47.970;7.830;2024-01-15T20:30:23;44.87;;;17.97;;
20956;SDS011;10637;47.970;7.830;2024-01-15T20:35:25;36.73;;;15.67;;
20956;SDS011;10637;47.970;7.830;2024-01-15T20:40:27;40.43;;;18.10;;
20956;SDS011;10637;47.970;7.830;2024-01-15T20:45:28;31.20;;;12.40;;
20956;SDS011;10637;47.970;7.830;2024-01-15T20:50:33;35.43;;;15.57;;
20956;SDS011;10637;47.970;7.830;2024-01-15T20:55:35;35.13;;;15.33;;
20956;SDS011;10637;47.970;7.830;2024-01-15T21:00:37;28.43;;;12.33;;
20956;SDS011;10637;47.970;7.830;2024-01-15T21:05:40;43.40;;;16.67;;
20956;SDS011;10637;47.970;7.830;2024-01-15T21:10:42;28.43;;;12.30;;
20956;SDS011;10637;47.970;7.830;2024-01-15T21:15:44;28.00;;;11.90;;
20956;SDS011;10637;47.970;7.830;2024-01-15T21:20:47;32.67;;;12.47;;
20956;SDS011;10637;47.970;7.830;2024-01-15T21:25:49;28.43;;;11.00;;
20956;SDS011;10637;47.970;7.830;2024-01-15T21:30:51;26.30;;;9.23;;
20956;SDS011;10637;47.970;7.830;2024-01-15T21:35:53;21.50;;;8.93;;
20956;SDS011;10637;47.970;7.830;2024-01-15T21:40:55;24.83;;;9.33;;
20956;SDS011;10637;47.970;7.830;2024-01-15T21:45:57;19.00;;;8.23;;
20956;SDS011;10637;47.970;7.830;2024-01-15T21:50:59;19.43;;;7.67;;
20956;SDS011;10637;47.970;7.830;2024-01-15T21:56:00;20.60;;;8.63;;
20956;SDS011;10637;47.970;7.830;2024-01-15T22:01:03;37.03;;;12.93;;
20956;SDS011;10637;47.970;7.830;2024-01-15T22:06:05;19.40;;;7.30;;
20956;SDS011;10637;47.970;7.830;2024-01-15T22:11:07;21.33;;;9.70;;
20956;SDS011;10637;47.970;7.830;2024-01-15T22:16:09;21.77;;;8.20;;
20956;SDS011;10637;47.970;7.830;2024-01-15T22:21:11;15.60;;;6.40;;
20956;SDS011;10637;47.970;7.830;2024-01-15T22:26:13;19.07;;;6.57;;
20956;SDS011;10637;47.970;7.830;2024-01-15T22:31:15;17.10;;;6.30;;
20956;SDS011;10637;47.970;7.830;2024-01-15T22:36:16;15.17;;;5.77;;
20956;SDS011;10637;47.970;7.830;2024-01-15T22:41:18;15.97;;;5.00;;
20956;SDS011;10637;47.970;7.830;2024-01-15T22:46:20;13.40;;;4.90;;
20956;SDS011;10637;47.970;7.830;2024-01-15T22:51:22;14.57;;;5.73;;
20956;SDS011;10637;47.970;7.830;2024-01-15T22:56:24;15.03;;;5.53;;
20956;SDS011;10637;47.970;7.830;2024-01-15T23:01:25;11.80;;;4.67;;
20956;SDS011;10637;47.970;7.830;2024-01-15T23:06:27;13.47;;;4.67;;
20956;SDS011;10637;47.970;7.830;2024-01-15T23:11:29;13.50;;;4.57;;
20956;SDS011;10637;47.970;7.830;2024-01-15T23:16:31;12.27;;;4.33;;
20956;SDS011;10637;47.970;7.830;2024-01-15T23:21:32;13.50;;;4.83;;
20956;SDS011;10637;47.970;7.830;2024-01-15T23:26:34;13.60;;;5.13;;
20956;SDS011;10637;47.970;7.830;2024-01-15T23:31:39;11.73;;;4.20;;
20956;SDS011;10637;47.970;7.830;2024-01-15T23:36:42;16.80;;;5.43;;
20956;SDS011;10637;47.970;7.830;2024-01-15T23:41:44;13.03;;;4.87;;
20956;SDS011;10637;47.970;7.830;2024-01-15T23:46:47;30.90;;;10.37;;
20956;SDS011;10637;47.970;7.830;2024-01-15T23:52:07;12.67;;;4.83;;
20956;SDS011;10637;47.970;7.830;2024-01-15T23:57:09;12.73;;;4.23;;
